Time;durP1;ratioP1;P1;durP2;ratioP2;P2;SDS_P1;SDS_P2;PMS_P1;PMS_P2;Temp;Humidity;BMP_temperature;BMP_pressure;BME280_temperature;BME280_humidity;BME280_pressure;Samples;Min_cycle;Max_cycle;Signal;HPM_P1;HPM_P2
2023/08/27 00:02:13;;;;;;;0.85;0.75;;;;;;;24.64;71.89;99024.72;5094917;28;20040;-62
2023/08/27 00:04:43;;;;;;;1.77;0.95;;;;;;;24.67;72.16;99026.28;5094279;28;20036;-62
2023/08/27 00:07:12;;;;;;;2.53;1.50;;;;;;;24.65;71.82;99022.94;5095081;28;20131;-62
2023/08/27 00:09:41;;;;;;;0.40;0.40;;;;;;;24.63;71.25;99022.22;5095013;28;20067;-62
2023/08/27 00:12:10;;;;;;;6.90;1.20;;;;;;;24.63;71.14;99024.81;5094823;28;20028;-61
2023/08/27 00:14:39;;;;;;;0.40;0.40;;;;;;;24.56;71.29;99018.38;5094674;28;20048;-62
2023/08/27 00:17:09;;;;;;;0.73;0.70;;;;;;;24.54;71.02;99025.47;5094650;28;20044;-62
2023/08/27 00:19:38;;;;;;;2.08;1.20;;;;;;;24.49;70.71;99014.50;5094647;28;20048;-62
2023/08/27 00:22:07;;;;;;;0.32;0.32;;;;;;;24.43;70.86;99001.84;5094511;28;20386;-62
2023/08/27 00:24:36;;;;;;;0.35;0.35;;;;;;;24.38;70.39;98998.72;5094594;28;20554;-62
2023/08/27 00:27:05;;;;;;;0.40;0.40;;;;;;;24.38;70.14;99003.94;5094442;28;20119;-62
2023/08/27 00:29:34;;;;;;;0.50;0.50;;;;;;;24.33;69.73;99006.06;5094623;28;20048;-62
2023/08/27 00:32:03;;;;;;;0.45;0.45;;;;;;;24.30;69.57;98995.81;5094343;28;20098;-62
2023/08/27 00:34:53;;;;;;;0.75;0.70;;;;;;;24.28;69.87;98995.09;5093226;28;20078;-62
2023/08/27 00:37:23;;;;;;;0.50;0.40;;;;;;;24.24;70.08;98997.06;5094247;28;20071;-62
2023/08/27 00:39:52;;;;;;;0.40;0.40;;;;;;;24.21;69.87;98999.84;5094241;28;20036;-62
2023/08/27 00:42:21;;;;;;;0.38;0.38;;;;;;;24.12;69.95;98992.66;5093269;28;20456;-62
2023/08/27 00:44:50;;;;;;;0.40;0.40;;;;;;;24.12;69.99;98994.44;5094243;28;20070;-62
2023/08/27 00:47:19;;;;;;;0.93;0.82;;;;;;;24.12;69.94;98997.03;5093286;28;20052;-62
2023/08/27 00:49:49;;;;;;;0.63;0.52;;;;;;;24.11;70.12;98998.00;5094048;28;20044;-62
2023/08/27 00:52:21;;;;;;;0.50;0.50;;;;;;;24.04;70.61;98999.31;5093837;28;20380;-62
2023/08/27 00:54:55;;;;;;;0.77;0.77;;;;;;;23.99;70.81;98992.59;5094014;28;20080;-62
2023/08/27 00:57:26;;;;;;;0.40;0.40;;;;;;;23.92;70.98;98996.56;5093933;28;20135;-62
2023/08/27 00:59:57;;;;;;;1.02;0.93;;;;;;;23.86;70.97;98996.13;5093223;28;20485;-62
2023/08/27 01:02:27;;;;;;;0.40;0.40;;;;;;;23.81;71.19;98993.81;5093838;28;20139;-62
2023/08/27 01:04:58;;;;;;;0.40;0.40;;;;;;;23.78;71.29;98988.81;5093823;28;20050;-62
2023/08/27 01:07:37;;;;;;;0.40;0.40;;;;;;;23.80;71.12;98992.13;5092955;28;20079;-62
2023/08/27 01:10:14;;;;;;;0.68;0.68;;;;;;;23.81;71.42;98988.63;5093828;28;20072;-62
2023/08/27 01:12:53;;;;;;;0.60;0.60;;;;;;;23.73;71.38;98996.09;5093746;28;20043;-61
2023/08/27 01:15:23;;;;;;;0.50;0.50;;;;;;;23.67;71.52;99006.94;5092583;28;20082;-62
2023/08/27 01:17:55;;;;;;;0.50;0.50;;;;;;;23.64;71.43;99017.53;5092529;28;20051;-62
2023/08/27 01:20:24;;;;;;;0.50;0.50;;;;;;;23.60;71.75;99016.06;5093716;28;20105;-62
2023/08/27 01:22:54;;;;;;;0.40;0.40;;;;;;;23.64;71.84;99011.47;5075717;28;20382;-63
2023/08/27 01:25:29;;;;;;;1.90;1.10;;;;;;;23.62;71.68;99014.19;5092746;28;20052;-62
2023/08/27 01:28:05;;;;;;;0.40;0.40;;;;;;;23.59;71.89;99017.00;5092460;28;20040;-61
2023/08/27 01:30:41;;;;;;;0.60;0.60;;;;;;;23.56;71.75;99004.19;5092326;28;20047;-61
2023/08/27 01:33:15;;;;;;;0.70;0.70;;;;;;;23.53;71.93;98993.97;5094038;28;20043;-62
2023/08/27 01:35:46;;;;;;;0.63;0.55;;;;;;;23.53;72.09;98991.34;5092628;28;20050;-62
2023/08/27 01:38:21;;;;;;;0.40;0.40;;;;;;;23.50;72.35;98986.31;5092430;28;20081;-62
2023/08/27 01:40:50;;;;;;;0.63;0.52;;;;;;;23.50;72.37;98988.94;5093537;28;20514;-62
2023/08/27 01:43:19;;;;;;;0.63;0.63;;;;;;;23.42;72.69;98988.59;5093358;28;20048;-61
2023/08/27 01:45:48;;;;;;;0.93;0.57;;;;;;;23.33;72.99;98995.19;5093530;28;20093;-61
2023/08/27 01:48:17;;;;;;;0.65;0.50;;;;;;;23.21;73.38;98987.31;5092311;28;20090;-61
2023/08/27 01:50:46;;;;;;;0.88;0.60;;;;;;;23.16;73.22;98984.16;5093353;28;20042;-62
2023/08/27 01:53:15;;;;;;;0.50;0.50;;;;;;;23.03;73.75;98988.47;5093351;28;20083;-62
2023/08/27 01:55:45;;;;;;;0.40;0.40;;;;;;;22.91;74.36;98981.44;5092217;28;20044;-62
2023/08/27 01:58:15;;;;;;;0.63;0.63;;;;;;;22.86;74.53;98970.47;5092523;28;20044;-61
2023/08/27 02:00:44;;;;;;;0.47;0.47;;;;;;;22.84;74.79;98973.19;5092984;28;20176;-61
2023/08/27 02:03:14;;;;;;;0.40;0.40;;;;;;;22.79;74.91;98971.78;5093162;28;20040;-61
2023/08/27 02:05:43;;;;;;;0.45;0.40;;;;;;;22.69;75.06;98968.91;5092147;28;20048;-61
2023/08/27 02:08:12;;;;;;;0.60;0.60;;;;;;;22.76;75.14;98971.97;5092035;28;20044;-61
2023/08/27 02:10:41;;;;;;;0.82;0.82;;;;;;;22.80;75.30;98963.88;5092229;28;20036;-61
2023/08/27 02:13:13;;;;;;;0.60;0.60;;;;;;;22.85;75.27;98964.41;5092090;28;20052;-61
2023/08/27 02:15:43;;;;;;;0.50;0.50;;;;;;;22.91;74.96;98958.00;5093503;28;20052;-62
2023/08/27 02:18:12;;;;;;;0.50;0.50;;;;;;;22.89;74.76;98949.47;5093211;28;20052;-61
2023/08/27 02:20:43;;;;;;;0.50;0.50;;;;;;;22.88;75.00;98942.56;5093093;28;20078;-61
2023/08/27 02:23:12;;;;;;;0.77;0.75;;;;;;;22.85;74.84;98942.75;5093247;28;20566;-61
2023/08/27 02:25:41;;;;;;;0.40;0.40;;;;;;;22.80;74.79;98950.00;5093365;28;20040;-61
2023/08/27 02:28:10;;;;;;;0.40;0.40;;;;;;;22.80;74.69;98956.06;5096878;28;20446;-61
2023/08/27 02:30:40;;;;;;;1.55;0.77;;;;;;;22.85;74.42;98960.97;5096885;28;20072;-61
2023/08/27 02:33:09;;;;;;;0.68;0.68;;;;;;;22.84;74.37;98961.94;5095572;28;20048;-61
2023/08/27 02:35:38;;;;;;;0.68;0.68;;;;;;;22.85;74.49;98979.19;5095730;28;20033;-61
2023/08/27 02:38:07;;;;;;;0.73;0.63;;;;;;;22.87;74.25;98977.34;5095397;28;20043;-61
2023/08/27 02:40:40;;;;;;;0.77;0.77;;;;;;;22.85;74.37;98987.00;5096535;28;20064;-61
2023/08/27 02:43:09;;;;;;;0.77;0.65;;;;;;;22.84;74.31;98985.34;5096479;28;20127;-61
2023/08/27 02:45:38;;;;;;;0.40;0.40;;;;;;;22.85;74.45;98985.25;5095195;28;20076;-62
2023/08/27 02:48:08;;;;;;;1.13;0.95;;;;;;;22.85;74.58;98981.78;5096438;28;20040;-61
2023/08/27 02:50:38;;;;;;;0.60;0.60;;;;;;;22.77;74.44;98976.25;5096339;28;20048;-61
2023/08/27 02:53:07;;;;;;;0.77;0.75;;;;;;;22.75;74.41;98972.91;5095181;28;20437;-61
2023/08/27 02:55:36;;;;;;;0.50;0.50;;;;;;;22.70;74.68;98965.34;5096441;28;20501;-61
2023/08/27 02:58:05;;;;;;;0.40;0.40;;;;;;;22.58;74.89;98966.91;5096171;28;20490;-62
2023/08/27 03:00:34;;;;;;;1.60;1.15;;;;;;;22.50;75.44;98958.75;5096135;28;20047;-61
2023/08/27 03:03:03;;;;;;;0.40;0.40;;;;;;;22.30;75.71;98961.72;5094891;28;20067;-61
2023/08/27 03:05:34;;;;;;;0.70;0.70;;;;;;;22.22;76.10;98953.53;5094812;28;20055;-61
2023/08/27 03:08:03;;;;;;;0.88;0.65;;;;;;;22.22;76.18;98958.72;5096042;28;20052;-61
2023/08/27 03:10:32;;;;;;;0.57;0.57;;;;;;;22.22;76.35;98969.13;5096235;28;20379;-61
2023/08/27 03:13:01;;;;;;;0.40;0.40;;;;;;;22.17;76.24;98958.16;5094701;28;20043;-61
2023/08/27 03:15:30;;;;;;;0.40;0.40;;;;;;;22.15;76.48;98954.81;5094671;28;20090;-61
2023/08/27 03:17:59;;;;;;;0.60;0.60;;;;;;;22.04;76.57;98949.44;5094921;28;20659;-61
2023/08/27 03:20:28;;;;;;;0.50;0.50;;;;;;;21.92;76.95;98944.94;5094595;28;20509;-62
2023/08/27 03:22:58;;;;;;;0.40;0.40;;;;;;;21.87;76.96;98959.97;5094506;28;20040;-61
2023/08/27 03:25:27;;;;;;;0.65;0.65;;;;;;;21.81;77.07;98958.53;5095711;28;20070;-61
2023/08/27 03:27:56;;;;;;;0.50;0.50;;;;;;;21.89;77.30;98955.53;5095687;28;20064;-62
2023/08/27 03:30:25;;;;;;;0.65;0.52;;;;;;;21.98;77.13;98954.97;5094718;28;20043;-62
2023/08/27 03:32:54;;;;;;;;;;;;;;;21.95;76.98;98960.38;5111817;28;20036;-62
2023/08/27 03:35:23;;;;;;;0.73;0.73;;;;;;;21.89;76.99;98966.75;5094613;28;19946;-61
2023/08/27 03:37:52;;;;;;;0.40;0.40;;;;;;;21.77;77.25;98964.84;5110659;28;20081;-61
2023/08/27 03:40:23;;;;;;;0.30;0.30;;;;;;;21.67;77.67;98970.63;5094089;28;20040;-61
2023/08/27 03:42:51;;;;;;;0.40;0.40;;;;;;;21.56;78.31;98968.66;5094518;28;20101;-61
2023/08/27 03:45:21;;;;;;;0.40;0.40;;;;;;;21.60;78.43;98954.56;5094091;28;20086;-62
2023/08/27 03:47:50;;;;;;;1.65;0.65;;;;;;;21.64;78.59;98960.44;5095537;28;20104;-61
2023/08/27 03:50:20;;;;;;;0.40;0.40;;;;;;;21.61;78.45;98961.44;5094264;28;20048;-62
2023/08/27 03:52:50;;;;;;;0.40;0.40;;;;;;;21.50;78.59;98952.59;5093773;28;20485;-62
2023/08/27 03:55:20;;;;;;;1.52;0.70;;;;;;;21.36;79.00;98959.38;5094280;28;20095;-62
2023/08/27 03:57:51;;;;;;;0.52;0.52;;;;;;;21.40;79.42;98949.69;5093792;28;20127;-62
2023/08/27 04:00:20;;;;;;;0.50;0.50;;;;;;;21.38;79.51;98952.34;5093937;28;20048;-62
2023/08/27 04:02:49;;;;;;;0.80;0.70;;;;;;;21.42;79.40;98950.44;5095272;28;20036;-62
2023/08/27 04:05:18;;;;;;;0.60;0.60;;;;;;;21.36;79.53;98956.78;5094005;28;20048;-61
2023/08/27 04:07:47;;;;;;;0.35;0.35;;;;;;;21.38;79.59;98948.09;5094771;28;20044;-62
2023/08/27 04:10:16;;;;;;;0.82;0.80;;;;;;;21.30;79.76;98946.78;5093610;28;20518;-62
2023/08/27 04:12:45;;;;;;;1.33;0.80;;;;;;;21.28;79.65;98947.78;5094717;28;20044;-62
2023/08/27 04:15:15;;;;;;;0.40;0.40;;;;;;;21.32;80.06;98939.72;5093817;28;20105;-61
2023/08/27 04:17:44;;;;;;;0.40;0.40;;;;;;;21.28;80.18;98938.19;5110432;28;20509;-60
2023/08/27 04:20:13;;;;;;;1.17;0.60;;;;;;;21.34;80.14;98932.69;5094907;28;20138;-62
2023/08/27 04:22:42;;;;;;;0.50;0.50;;;;;;;21.32;80.18;98939.72;5093327;28;20040;-61
2023/08/27 04:25:16;;;;;;;0.68;0.68;;;;;;;21.38;80.20;98944.56;5094535;28;20054;-62
2023/08/27 04:27:47;;;;;;;0.50;0.50;;;;;;;21.41;80.31;98953.09;5094447;28;20056;-61
2023/08/27 04:30:17;;;;;;;0.40;0.40;;;;;;;21.42;80.36;98936.59;5093527;28;20509;-62
2023/08/27 04:32:46;;;;;;;2.35;0.82;;;;;;;21.40;80.44;98956.63;5094301;28;20046;-62
2023/08/27 04:35:15;;;;;;;1.23;0.68;;;;;;;21.47;80.56;98937.19;5093211;28;20042;-62
2023/08/27 04:37:44;;;;;;;0.38;0.38;;;;;;;21.47;80.39;98943.22;5094568;28;20042;-62
2023/08/27 04:40:14;;;;;;;0.35;0.35;;;;;;;21.49;80.42;98946.56;5093063;28;20072;-61
2023/08/27 04:42:43;;;;;;;1.42;0.88;;;;;;;21.47;80.61;98944.97;5094176;28;20506;-62
2023/08/27 04:45:12;;;;;;;0.30;0.30;;;;;;;21.53;80.65;98942.00;5093555;28;20398;-62
2023/08/27 04:47:43;;;;;;;0.55;0.55;;;;;;;21.60;80.79;98940.75;5094135;28;20107;-61
2023/08/27 04:50:12;;;;;;;1.55;0.75;;;;;;;21.65;80.87;98941.31;5094036;28;20089;-62
2023/08/27 04:52:41;;;;;;;0.38;0.38;;;;;;;21.80;80.38;98935.25;5093875;28;20429;-62
2023/08/27 04:55:11;;;;;;;0.65;0.65;;;;;;;21.92;80.21;98945.78;5093022;28;20067;-62
2023/08/27 04:57:40;;;;;;;0.52;0.52;;;;;;;22.03;79.66;98952.94;5092992;28;20040;-62
2023/08/27 05:00:19;;;;;;;0.77;0.77;;;;;;;22.16;79.48;98942.66;5092676;28;20127;-62
2023/08/27 05:02:50;;;;;;;0.52;0.50;;;;;;;22.26;79.16;98949.84;5094039;28;20040;-62
2023/08/27 05:05:19;;;;;;;0.82;0.82;;;;;;;22.30;78.72;98940.91;5093936;28;20036;-62
2023/08/27 05:07:49;;;;;;;0.50;0.50;;;;;;;22.37;78.47;98942.22;5093870;28;20055;-61
2023/08/27 05:10:18;;;;;;;0.70;0.47;;;;;;;22.41;78.21;98948.88;5092494;28;20051;-62
2023/08/27 05:12:48;;;;;;;1.00;0.90;;;;;;;22.50;77.99;98948.34;5092546;28;20128;-62
2023/08/27 05:15:20;;;;;;;0.88;0.88;;;;;;;22.56;77.57;98947.13;5094360;28;20040;-62
2023/08/27 05:17:51;;;;;;;0.82;0.82;;;;;;;22.58;77.50;98930.50;5093706;28;20502;-62
2023/08/27 05:20:20;;;;;;;2.83;1.42;;;;;;;22.64;77.27;98937.13;5109396;28;20046;-62
2023/08/27 05:22:49;;;;;;;0.73;0.73;;;;;;;22.70;77.04;98920.31;5109442;28;20044;-62
2023/08/27 05:25:18;;;;;;;2.80;0.60;;;;;;;22.73;76.94;98917.50;5092438;28;20040;-62
2023/08/27 05:27:48;;;;;;;0.40;0.40;;;;;;;22.75;76.66;98916.47;5093639;28;20051;-62
2023/08/27 05:30:18;;;;;;;1.00;0.90;;;;;;;22.76;76.55;98912.13;5092639;28;20032;-62
2023/08/27 05:32:46;;;;;;;1.15;0.88;;;;;;;22.80;76.37;98913.59;5092599;28;20145;-62
2023/08/27 05:35:17;;;;;;;0.40;0.40;;;;;;;22.84;76.19;98915.09;5093549;28;20044;-62
2023/08/27 05:37:47;;;;;;;0.45;0.45;;;;;;;22.96;76.15;98915.13;5092370;28;20048;-62
2023/08/27 05:40:16;;;;;;;0.82;0.60;;;;;;;23.06;75.78;98900.59;5092272;28;20060;-62
2023/08/27 05:42:45;;;;;;;0.88;0.77;;;;;;;23.16;75.48;98900.84;5092243;28;20132;-62
2023/08/27 05:45:15;;;;;;;1.38;1.08;;;;;;;23.20;75.17;98894.53;5092293;28;20044;-62
2023/08/27 05:47:43;;;;;;;0.95;0.85;;;;;;;23.21;75.12;98894.41;5093468;28;20040;-62
2023/08/27 05:50:12;;;;;;;0.73;0.73;;;;;;;23.30;75.00;98888.59;5093578;28;20044;-62
2023/08/27 05:52:44;;;;;;;2.60;1.17;;;;;;;23.37;74.64;98889.06;5092007;28;20479;-62
2023/08/27 05:55:13;;;;;;;1.73;1.33;;;;;;;23.41;74.39;98893.16;5092740;28;20069;-62
2023/08/27 05:57:42;;;;;;;0.80;0.80;;;;;;;23.43;74.31;98887.84;5093334;28;20048;-62
2023/08/27 06:00:13;;;;;;;0.40;0.40;;;;;;;23.47;74.13;98884.09;5093643;28;20040;-62
2023/08/27 06:02:42;;;;;;;0.30;0.30;;;;;;;23.50;74.14;98879.50;5096061;28;20123;-62
2023/08/27 06:05:11;;;;;;;1.02;0.93;;;;;;;23.58;74.07;98886.81;5097130;28;20094;-62
2023/08/27 06:07:40;;;;;;;0.95;0.70;;;;;;;23.71;74.01;98890.28;5095929;28;20135;-62
2023/08/27 06:10:11;;;;;;;0.50;0.50;;;;;;;23.89;73.73;98902.09;5096142;28;20059;-62
2023/08/27 06:12:40;;;;;;;0.40;0.40;;;;;;;24.00;73.57;98905.63;5096133;28;20051;-62
2023/08/27 06:15:10;;;;;;;0.45;0.45;;;;;;;24.06;73.47;98904.41;5095790;28;20040;-62
2023/08/27 06:17:39;;;;;;;0.80;0.77;;;;;;;24.06;73.35;98899.19;5096726;28;20048;-62
2023/08/27 06:20:09;;;;;;;1.35;0.98;;;;;;;24.10;73.16;98900.66;5095728;28;20040;-62
2023/08/27 06:22:38;;;;;;;0.82;0.82;;;;;;;24.21;72.93;98907.75;5096521;28;20046;-62
2023/08/27 06:25:08;;;;;;;0.50;0.50;;;;;;;24.24;72.72;98902.31;5096716;28;20126;-62
2023/08/27 06:27:39;;;;;;;0.50;0.50;;;;;;;24.25;72.68;98898.78;5097032;28;20075;-63
2023/08/27 06:30:09;;;;;;;0.47;0.47;;;;;;;24.28;72.35;98895.97;5095938;28;20489;-62
2023/08/27 06:32:38;;;;;;;0.80;0.77;;;;;;;24.37;71.97;98892.72;5095658;28;20109;-62
2023/08/27 06:35:09;;;;;;;0.70;0.70;;;;;;;24.51;71.94;98889.97;5096259;28;20047;-62
2023/08/27 06:37:38;;;;;;;0.45;0.45;;;;;;;24.56;71.59;98883.50;5096916;28;20060;-62
2023/08/27 06:40:09;;;;;;;0.40;0.40;;;;;;;24.70;71.21;98882.50;5096833;28;20481;-62
2023/08/27 06:42:39;;;;;;;0.63;0.50;;;;;;;24.79;70.71;98891.47;5095315;28;20125;-62
2023/08/27 06:45:09;;;;;;;0.57;0.40;;;;;;;24.78;70.41;98882.84;5095274;28;20048;-62
2023/08/27 06:47:39;;;;;;;0.50;0.50;;;;;;;24.83;70.24;98879.91;5096803;28;20051;-62
2023/08/27 06:50:09;;;;;;;0.50;0.50;;;;;;;24.86;70.20;98880.50;5096314;28;20382;-62
2023/08/27 06:52:37;;;;;;;;;;;;;;;24.98;70.08;98874.41;5096048;28;20044;-63
2023/08/27 06:55:06;;;;;;;0.53;0.53;;;;;;;25.14;69.70;98869.75;5095050;28;19961;-62
2023/08/27 06:57:35;;;;;;;0.65;0.57;;;;;;;25.23;69.22;98874.28;5095299;28;20304;-63
2023/08/27 07:00:07;;;;;;;0.82;0.75;;;;;;;25.39;69.63;98873.16;5094977;28;20094;-61
2023/08/27 07:02:37;;;;;;;0.70;0.70;;;;;;;25.38;69.04;98859.28;5095162;28;20044;-61
2023/08/27 07:05:08;;;;;;;0.40;0.40;;;;;;;25.39;68.42;98865.34;5095270;28;20123;-62
2023/08/27 07:07:38;;;;;;;1.30;1.02;;;;;;;25.52;69.03;98855.66;5095095;28;20490;-63
2023/08/27 07:10:09;;;;;;;0.40;0.40;;;;;;;25.55;68.46;98848.41;5095000;28;20052;-62
2023/08/27 07:12:38;;;;;;;0.73;0.73;;;;;;;25.56;68.36;98844.00;5096041;28;20501;-62
2023/08/27 07:15:10;;;;;;;1.23;0.75;;;;;;;25.65;68.20;98849.38;5096055;28;20040;-62
2023/08/27 07:17:40;;;;;;;0.70;0.70;;;;;;;25.86;67.86;98847.78;5094745;28;20520;-63
2023/08/27 07:20:11;;;;;;;0.85;0.82;;;;;;;25.91;67.76;98850.03;5094780;28;20044;-62
2023/08/27 07:22:41;;;;;;;0.50;0.50;;;;;;;25.93;67.17;98848.13;5096150;28;20509;-62
2023/08/27 07:25:10;;;;;;;0.77;0.77;;;;;;;25.90;67.51;98853.56;5094430;28;20036;-63
2023/08/27 07:27:39;;;;;;;0.65;0.63;;;;;;;25.98;67.90;98847.75;5093992;28;20036;-63
2023/08/27 07:30:10;;;;;;;0.60;0.60;;;;;;;26.09;67.73;98853.84;5089915;28;20039;-63
2023/08/27 07:32:39;;;;;;;0.40;0.40;;;;;;;26.19;67.57;98853.97;5085370;28;20052;-62
2023/08/27 07:35:08;;;;;;;0.57;0.57;;;;;;;26.29;67.12;98861.00;5094226;28;20036;-62
2023/08/27 07:37:39;;;;;;;0.52;0.52;;;;;;;26.42;67.54;98856.47;5094451;28;20101;-62
2023/08/27 07:40:11;;;;;;;0.75;0.75;;;;;;;26.51;67.33;98850.50;5095462;28;20052;-62
2023/08/27 07:42:41;;;;;;;0.52;0.52;;;;;;;26.47;66.61;98858.72;5095388;28;20070;-62
2023/08/27 07:45:14;;;;;;;1.35;1.23;;;;;;;26.47;66.48;98859.56;5094670;28;20429;-62
2023/08/27 07:47:44;;;;;;;0.47;0.47;;;;;;;26.49;66.00;98851.59;5095379;28;20059;-63
2023/08/27 07:50:13;;;;;;;0.65;0.65;;;;;;;26.58;66.08;98851.72;5095446;28;20082;-62
2023/08/27 07:52:42;;;;;;;0.47;0.47;;;;;;;26.69;65.88;98847.38;5094873;28;20079;-62
2023/08/27 07:55:11;;;;;;;0.50;0.50;;;;;;;26.76;65.25;98854.66;5094034;28;20063;-62
2023/08/27 07:57:40;;;;;;;0.85;0.68;;;;;;;26.80;65.67;98845.63;5094990;28;20085;-62
2023/08/27 08:00:10;;;;;;;1.10;0.90;;;;;;;26.78;65.26;98851.94;5093957;28;20097;-62
2023/08/27 08:02:44;;;;;;;0.93;0.82;;;;;;;26.88;65.47;98842.34;5095059;28;20120;-62
2023/08/27 08:05:13;;;;;;;0.57;0.50;;;;;;;26.94;64.77;98841.88;5094911;28;20048;-62
2023/08/27 08:07:42;;;;;;;0.75;0.68;;;;;;;27.00;65.01;98841.38;5095087;28;20039;-62
2023/08/27 08:10:10;;;;;;;;;;;;;;;27.09;65.78;98843.25;5095771;28;20032;-61
2023/08/27 08:12:39;;;;;;;2.03;0.65;;;;;;;27.05;64.83;98841.81;5094743;28;19948;-63
2023/08/27 08:15:09;;;;;;;0.73;0.73;;;;;;;27.00;64.60;98842.22;5094768;28;20036;-62
2023/08/27 08:17:38;;;;;;;1.17;0.95;;;;;;;27.01;64.79;98838.66;5094655;28;20044;-62
2023/08/27 08:20:15;;;;;;;0.77;0.70;;;;;;;27.19;64.99;98838.91;5085395;28;20036;-63
2023/08/27 08:22:44;;;;;;;0.68;0.68;;;;;;;27.24;64.93;98839.38;5079701;28;20510;-63
2023/08/27 08:25:12;;;;;;;1.17;0.70;;;;;;;27.21;65.05;98832.59;5090734;28;20040;-63
2023/08/27 08:27:41;;;;;;;1.40;1.02;;;;;;;27.25;65.00;98836.63;5092826;28;20043;-63
2023/08/27 08:30:11;;;;;;;1.20;1.02;;;;;;;27.32;64.87;98831.72;5084407;28;20119;-65
2023/08/27 08:32:39;;;;;;;;;;;;;;;27.45;64.57;98828.94;5095034;28;20071;-62
2023/08/27 08:35:08;;;;;;;0.70;0.70;;;;;;;27.49;64.94;98827.72;5094201;28;20030;-63
2023/08/27 08:37:39;;;;;;;1.40;1.30;;;;;;;27.59;65.32;98829.47;5094290;28;20047;-63
2023/08/27 08:40:10;;;;;;;4.80;1.52;;;;;;;27.77;65.21;98827.06;5094352;28;20055;-62
2023/08/27 08:42:48;;;;;;;3.10;1.20;;;;;;;27.99;64.94;98821.66;5094273;28;20044;-62
2023/08/27 08:45:23;;;;;;;1.02;0.93;;;;;;;28.24;64.73;98817.78;5094481;28;20048;-63
2023/08/27 08:47:54;;;;;;;1.08;0.90;;;;;;;28.33;64.37;98814.34;5094385;28;20051;-62
2023/08/27 08:50:23;;;;;;;2.05;1.55;;;;;;;28.53;64.49;98810.78;5094202;28;20049;-63
2023/08/27 08:52:57;;;;;;;1.55;1.00;;;;;;;28.71;63.81;98817.09;5093958;28;20048;-63
2023/08/27 08:55:27;;;;;;;2.88;1.02;;;;;;;28.82;63.50;98803.81;5094225;28;20073;-63
2023/08/27 08:57:59;;;;;;;2.28;1.48;;;;;;;28.92;62.93;98801.19;5094245;28;20052;-63
2023/08/27 09:00:29;;;;;;;2.83;1.73;;;;;;;28.94;62.56;98794.84;5094194;28;20398;-63
2023/08/27 09:03:03;;;;;;;0.95;0.80;;;;;;;29.08;62.52;98786.53;5093869;28;20050;-63
2023/08/27 09:05:34;;;;;;;1.63;1.00;;;;;;;29.19;62.14;98767.19;5094689;28;20101;-63
2023/08/27 09:08:10;;;;;;;5.47;1.60;;;;;;;29.14;61.78;98770.22;5094119;28;20115;-63
2023/08/27 09:10:39;;;;;;;1.83;1.50;;;;;;;29.25;61.72;98776.31;5093848;28;20067;-64
2023/08/27 09:13:08;;;;;;;1.63;1.27;;;;;;;29.34;61.37;98791.25;5094031;28;20071;-63
2023/08/27 09:15:37;;;;;;;0.80;0.80;;;;;;;29.36;61.24;98799.81;5093913;28;20520;-63
2023/08/27 09:18:06;;;;;;;5.15;1.30;;;;;;;29.42;61.37;98794.03;5093695;28;20066;-63
2023/08/27 09:20:34;;;;;;;0.82;0.82;;;;;;;29.50;60.92;98786.22;5093725;28;20505;-63
2023/08/27 09:23:08;;;;;;;0.60;0.60;;;;;;;29.71;60.64;98776.34;5093726;28;20044;-63
2023/08/27 09:25:39;;;;;;;3.97;0.80;;;;;;;29.63;60.12;98782.34;5093949;28;20059;-63
2023/08/27 09:28:08;;;;;;;1.73;1.15;;;;;;;29.56;59.75;98775.16;5093983;28;20047;-64
2023/08/27 09:30:37;;;;;;;1.48;1.27;;;;;;;29.59;59.95;98790.63;5093863;28;20115;-62
2023/08/27 09:33:06;;;;;;;0.57;0.52;;;;;;;29.69;59.65;98786.19;5093794;28;20051;-63
2023/08/27 09:35:38;;;;;;;;;;;;;;;29.79;59.29;98789.66;5093938;28;20040;-63
2023/08/27 09:38:07;;;;;;;0.52;0.52;;;;;;;29.81;58.79;98782.44;5097746;28;20301;-63
2023/08/27 09:40:36;;;;;;;0.55;0.55;;;;;;;29.84;58.26;98785.63;5098026;28;20044;-63
2023/08/27 09:43:08;;;;;;;1.50;0.88;;;;;;;29.89;58.23;98787.81;5097607;28;20044;-63
2023/08/27 09:45:38;;;;;;;0.55;0.55;;;;;;;30.02;58.26;98783.03;5097607;28;20055;-62
2023/08/27 09:48:07;;;;;;;0.93;0.80;;;;;;;30.18;57.75;98777.16;5097597;28;20044;-63
2023/08/27 09:50:36;;;;;;;0.80;0.80;;;;;;;30.33;57.72;98787.06;5097705;28;20047;-62
2023/08/27 09:53:07;;;;;;;1.00;0.93;;;;;;;30.35;57.12;98789.56;5097261;28;20059;-62
2023/08/27 09:55:37;;;;;;;1.15;1.05;;;;;;;30.20;57.00;98794.47;5097559;28;20047;-63
2023/08/27 09:58:07;;;;;;;0.63;0.63;;;;;;;30.18;57.42;98782.41;5097617;28;20550;-62
2023/08/27 10:00:36;;;;;;;1.35;0.95;;;;;;;30.26;57.35;98770.16;5097342;28;20040;-63
2023/08/27 10:03:05;;;;;;;1.02;0.80;;;;;;;30.22;57.48;98768.81;5097572;28;20043;-62
2023/08/27 10:05:35;;;;;;;;;;;;;;;30.15;57.11;98778.28;5097785;28;20127;-63
2023/08/27 10:08:06;;;;;;;1.30;1.08;;;;;;;30.18;56.69;98788.50;5097495;28;19924;-63
2023/08/27 10:10:36;;;;;;;0.70;0.70;;;;;;;30.37;57.24;98785.81;5097198;28;20044;-62
2023/08/27 10:13:07;;;;;;;1.00;0.98;;;;;;;30.49;56.83;98782.00;5097315;28;20056;-63
2023/08/27 10:15:36;;;;;;;0.40;0.40;;;;;;;30.48;56.79;98775.06;5097026;28;20040;-62
2023/08/27 10:18:06;;;;;;;1.65;1.08;;;;;;;30.48;56.84;98767.16;5097001;28;20036;-63
2023/08/27 10:20:35;;;;;;;0.65;0.63;;;;;;;30.64;57.09;98757.75;5096902;28;20043;-63
2023/08/27 10:23:04;;;;;;;;;;;;;;;30.72;56.42;98765.72;5097367;28;20039;-62
2023/08/27 10:25:34;;;;;;;0.73;0.73;;;;;;;30.78;56.61;98754.59;5096777;28;20397;-63
2023/08/27 10:28:03;;;;;;;3.38;1.25;;;;;;;30.84;55.86;98759.25;5096974;28;20059;-64
2023/08/27 10:30:35;;;;;;;0.80;0.80;;;;;;;30.85;55.46;98750.38;5096676;28;20037;-62
2023/08/27 10:33:05;;;;;;;1.58;1.17;;;;;;;30.91;55.44;98750.63;5096751;28;20051;-63
2023/08/27 10:35:38;;;;;;;1.92;0.73;;;;;;;30.94;55.52;98739.78;5096532;28;20040;-62
2023/08/27 10:38:09;;;;;;;1.35;0.80;;;;;;;31.09;54.61;98732.16;5096761;28;20051;-62
2023/08/27 10:40:39;;;;;;;1.30;1.13;;;;;;;31.20;54.57;98729.25;5097726;28;20468;-63
2023/08/27 10:43:08;;;;;;;1.05;0.98;;;;;;;31.03;54.40;98724.84;5096427;28;20058;-62
2023/08/27 10:45:39;;;;;;;2.67;1.23;;;;;;;30.85;54.72;98721.38;5095299;28;20068;-64
2023/08/27 10:48:10;;;;;;;1.20;1.10;;;;;;;30.73;55.26;98726.06;5095842;28;20048;-63
2023/08/27 10:50:47;;;;;;;1.20;0.90;;;;;;;30.71;55.69;98724.56;5095155;28;20391;-63
2023/08/27 10:53:18;;;;;;;0.75;0.75;;;;;;;30.75;55.26;98723.25;5096582;28;20082;-61
2023/08/27 10:55:50;;;;;;;1.08;0.98;;;;;;;30.85;54.96;98718.75;5078231;28;20048;-63
2023/08/27 10:58:20;;;;;;;1.55;0.85;;;;;;;31.03;54.23;98717.75;5096291;28;20036;-63
2023/08/27 11:01:08;;;;;;;0.77;0.77;;;;;;;31.36;53.62;98718.00;5096182;28;20055;-64
2023/08/27 11:03:51;;;;;;;1.30;1.15;;;;;;;31.50;52.97;98710.38;5096532;28;20138;-63
2023/08/27 11:06:21;;;;;;;2.30;1.02;;;;;;;31.65;52.43;98711.41;5096078;28;20082;-62
2023/08/27 11:08:53;;;;;;;0.80;0.80;;;;;;;31.66;52.01;98710.44;5095993;28;20044;-63
2023/08/27 11:11:26;;;;;;;0.80;0.60;;;;;;;31.67;51.68;98701.50;5096082;28;20044;-62
2023/08/27 11:14:08;;;;;;;0.75;0.75;;;;;;;31.81;51.88;98702.75;5095862;28;20040;-62
2023/08/27 11:16:54;;;;;;;1.23;0.77;;;;;;;31.96;51.68;98706.44;5095859;28;20062;-63
2023/08/27 11:19:28;;;;;;;2.15;1.33;;;;;;;31.93;50.87;98703.28;5095847;28;20052;-63
2023/08/27 11:22:06;;;;;;;1.35;1.20;;;;;;;32.05;50.29;98699.41;5095758;28;20067;-63
2023/08/27 11:24:38;;;;;;;0.70;0.70;;;;;;;32.18;50.06;98697.09;5095736;28;20044;-63
2023/08/27 11:27:07;;;;;;;1.27;0.68;;;;;;;32.17;49.00;98698.94;5095850;28;20067;-62
2023/08/27 11:29:39;;;;;;;;;;;;;;;32.14;49.49;98687.84;5096114;28;20040;-64
2023/08/27 11:32:11;;;;;;;1.38;1.13;;;;;;;32.05;48.32;98688.84;5095470;28;19920;-63
2023/08/27 11:34:41;;;;;;;1.25;1.10;;;;;;;32.22;48.13;98701.09;5095807;28;20097;-63
2023/08/27 11:37:11;;;;;;;1.23;1.10;;;;;;;32.24;47.73;98688.53;5095328;28;20517;-63
2023/08/27 11:39:42;;;;;;;1.08;0.82;;;;;;;32.47;48.18;98692.22;5095455;28;20102;-63
2023/08/27 11:42:13;;;;;;;0.63;0.63;;;;;;;32.74;48.20;98697.22;5095463;28;20090;-63
2023/08/27 11:44:49;;;;;;;0.60;0.60;;;;;;;32.95;47.93;98694.88;5095459;28;20085;-62
2023/08/27 11:47:20;;;;;;;1.90;0.73;;;;;;;33.00;45.38;98689.94;5095205;28;20490;-62
2023/08/27 11:49:51;;;;;;;1.95;1.25;;;;;;;32.95;45.42;98694.88;5095297;28;20127;-63